sensor_id;sensor_type;location;lat;lon;timestamp;pressure;altitude;pressure_sealevel;temperature;humidity
22964;BME280;11648;49.306;6.934;2022-07-22T00:00:51;98811.41;;;24.14;59.10
22964;BME280;11648;49.306;6.934;2022-07-22T00:03:18;98810.34;;;24.16;59.11
22964;BME280;11648;49.306;6.934;2022-07-22T00:05:45;98806.34;;;24.07;59.41
22964;BME280;11648;49.306;6.934;2022-07-22T00:08:12;98811.72;;;24.07;59.33
22964;BME280;11648;49.306;6.934;2022-07-22T00:10:39;98810.09;;;24.05;59.33
22964;BME280;11648;49.306;6.934;2022-07-22T00:13:07;98810.97;;;24.05;59.19
22964;BME280;11648;49.306;6.934;2022-07-22T00:15:34;98815.06;;;23.97;60.18
22964;BME280;11648;49.306;6.934;2022-07-22T00:18:01;98817.94;;;23.94;60.54
22964;BME280;11648;49.306;6.934;2022-07-22T00:20:27;98812.94;;;23.88;60.81
22964;BME280;11648;49.306;6.934;2022-07-22T00:22:54;98811.19;;;23.87;60.90
22964;BME280;11648;49.306;6.934;2022-07-22T00:25:21;98813.13;;;23.85;60.43
22964;BME280;11648;49.306;6.934;2022-07-22T00:27:48;98806.38;;;23.78;61.07
22964;BME280;11648;49.306;6.934;2022-07-22T00:30:15;98805.13;;;23.83;60.45
22964;BME280;11648;49.306;6.934;2022-07-22T00:32:42;98811.13;;;23.73;61.22
22964;BME280;11648;49.306;6.934;2022-07-22T00:35:09;98808.38;;;23.74;61.12
22964;BME280;11648;49.306;6.934;2022-07-22T00:37:35;98804.63;;;23.77;60.83
22964;BME280;11648;49.306;6.934;2022-07-22T00:40:03;98807.22;;;23.78;60.88
22964;BME280;11648;49.306;6.934;2022-07-22T00:42:30;98813.63;;;23.76;61.04
22964;BME280;11648;49.306;6.934;2022-07-22T00:44:58;98803.69;;;23.78;60.84
22964;BME280;11648;49.306;6.934;2022-07-22T00:47:26;98802.63;;;23.80;60.45
22964;BME280;11648;49.306;6.934;2022-07-22T00:49:53;98807.13;;;23.80;60.82
22964;BME280;11648;49.306;6.934;2022-07-22T00:52:20;98803.84;;;23.75;60.79
22964;BME280;11648;49.306;6.934;2022-07-22T00:54:49;98806.72;;;23.72;60.74
22964;BME280;11648;49.306;6.934;2022-07-22T00:57:16;98807.00;;;23.67;61.09
22964;BME280;11648;49.306;6.934;2022-07-22T00:59:43;98807.59;;;23.56;61.22
22964;BME280;11648;49.306;6.934;2022-07-22T01:02:09;98815.06;;;23.51;61.62
22964;BME280;11648;49.306;6.934;2022-07-22T01:04:36;98809.88;;;23.48;61.46
22964;BME280;11648;49.306;6.934;2022-07-22T01:07:03;98812.06;;;23.42;61.10
22964;BME280;11648;49.306;6.934;2022-07-22T01:09:30;98809.59;;;23.37;61.05
22964;BME280;11648;49.306;6.934;2022-07-22T01:11:56;98807.97;;;23.35;61.13
22964;BME280;11648;49.306;6.934;2022-07-22T01:14:24;98812.78;;;23.28;61.06
22964;BME280;11648;49.306;6.934;2022-07-22T01:16:51;98810.44;;;23.22;61.37
22964;BME280;11648;49.306;6.934;2022-07-22T01:19:18;98807.94;;;23.19;61.25
22964;BME280;11648;49.306;6.934;2022-07-22T01:21:47;98807.50;;;23.11;61.79
22964;BME280;11648;49.306;6.934;2022-07-22T01:24:13;98809.31;;;23.10;61.99
22964;BME280;11648;49.306;6.934;2022-07-22T01:26:40;98809.75;;;23.03;62.51
22964;BME280;11648;49.306;6.934;2022-07-22T01:29:07;98808.97;;;23.01;63.12
22964;BME280;11648;49.306;6.934;2022-07-22T01:31:34;98809.16;;;22.98;62.98
22964;BME280;11648;49.306;6.934;2022-07-22T01:34:01;98797.88;;;22.91;63.20
22964;BME280;11648;49.306;6.934;2022-07-22T01:36:29;98801.50;;;22.90;63.00
22964;BME280;11648;49.306;6.934;2022-07-22T01:38:56;98801.94;;;22.83;63.38
22964;BME280;11648;49.306;6.934;2022-07-22T01:41:23;98799.06;;;22.86;63.45
22964;BME280;11648;49.306;6.934;2022-07-22T01:43:50;98802.69;;;22.85;63.46
22964;BME280;11648;49.306;6.934;2022-07-22T01:46:17;98801.00;;;22.84;63.14
22964;BME280;11648;49.306;6.934;2022-07-22T01:48:45;98809.34;;;22.78;64.05
22964;BME280;11648;49.306;6.934;2022-07-22T01:51:11;98802.34;;;22.75;64.07
22964;BME280;11648;49.306;6.934;2022-07-22T01:53:38;98803.41;;;22.73;64.21
22964;BME280;11648;49.306;6.934;2022-07-22T01:56:05;98808.66;;;22.74;64.30
22964;BME280;11648;49.306;6.934;2022-07-22T01:58:37;98810.50;;;22.74;64.56
22964;BME280;11648;49.306;6.934;2022-07-22T02:01:07;98805.13;;;22.74;64.16
22964;BME280;11648;49.306;6.934;2022-07-22T02:03:35;98801.47;;;22.75;63.54
22964;BME280;11648;49.306;6.934;2022-07-22T02:06:03;98805.91;;;22.76;63.61
22964;BME280;11648;49.306;6.934;2022-07-22T02:08:30;98807.97;;;22.71;64.14
22964;BME280;11648;49.306;6.934;2022-07-22T02:11:32;98806.47;;;22.65;64.64
22964;BME280;11648;49.306;6.934;2022-07-22T02:14:00;98805.69;;;22.63;64.92
22964;BME280;11648;49.306;6.934;2022-07-22T02:16:28;98805.59;;;22.64;64.38
22964;BME280;11648;49.306;6.934;2022-07-22T02:18:54;98804.00;;;22.60;64.76
22964;BME280;11648;49.306;6.934;2022-07-22T02:21:22;98795.97;;;22.60;64.13
22964;BME280;11648;49.306;6.934;2022-07-22T02:23:52;98788.84;;;22.59;64.50
22964;BME280;11648;49.306;6.934;2022-07-22T02:26:19;98792.56;;;22.57;64.43
22964;BME280;11648;49.306;6.934;2022-07-22T02:28:46;98792.22;;;22.47;64.58
22964;BME280;11648;49.306;6.934;2022-07-22T02:31:12;98797.41;;;22.50;64.05
22964;BME280;11648;49.306;6.934;2022-07-22T02:33:39;98792.22;;;22.47;63.48
22964;BME280;11648;49.306;6.934;2022-07-22T02:36:07;98792.38;;;22.44;63.63
22964;BME280;11648;49.306;6.934;2022-07-22T02:38:35;98794.19;;;22.44;64.11
22964;BME280;11648;49.306;6.934;2022-07-22T02:41:02;98798.69;;;22.43;64.02
22964;BME280;11648;49.306;6.934;2022-07-22T02:43:29;98803.28;;;22.41;64.21
22964;BME280;11648;49.306;6.934;2022-07-22T02:45:56;98800.84;;;22.37;63.95
22964;BME280;11648;49.306;6.934;2022-07-22T02:48:23;98796.41;;;22.36;64.27
22964;BME280;11648;49.306;6.934;2022-07-22T02:50:50;98793.66;;;22.37;64.04
22964;BME280;11648;49.306;6.934;2022-07-22T02:53:22;98795.53;;;22.35;63.72
22964;BME280;11648;49.306;6.934;2022-07-22T02:55:49;98796.81;;;22.28;64.29
22964;BME280;11648;49.306;6.934;2022-07-22T02:58:16;98790.75;;;22.25;64.90
22964;BME280;11648;49.306;6.934;2022-07-22T03:00:44;98791.44;;;22.28;64.02
22964;BME280;11648;49.306;6.934;2022-07-22T03:03:11;98799.66;;;22.25;64.49
22964;BME280;11648;49.306;6.934;2022-07-22T03:05:38;98791.16;;;22.17;64.34
22964;BME280;11648;49.306;6.934;2022-07-22T03:08:25;98793.22;;;22.12;64.79
22964;BME280;11648;49.306;6.934;2022-07-22T03:10:52;98792.41;;;22.10;65.01
22964;BME280;11648;49.306;6.934;2022-07-22T03:13:20;98794.50;;;22.05;65.15
22964;BME280;11648;49.306;6.934;2022-07-22T03:15:47;98782.16;;;21.84;65.46
22964;BME280;11648;49.306;6.934;2022-07-22T03:18:14;98782.63;;;21.92;65.27
22964;BME280;11648;49.306;6.934;2022-07-22T03:20:41;98782.78;;;21.89;64.69
22964;BME280;11648;49.306;6.934;2022-07-22T03:23:07;98780.09;;;21.89;64.31
22964;BME280;11648;49.306;6.934;2022-07-22T03:25:34;98779.31;;;21.87;64.59
22964;BME280;11648;49.306;6.934;2022-07-22T03:28:01;98785.69;;;21.84;64.72
22964;BME280;11648;49.306;6.934;2022-07-22T03:30:28;98785.78;;;21.83;65.06
22964;BME280;11648;49.306;6.934;2022-07-22T03:32:56;98786.81;;;21.80;65.33
22964;BME280;11648;49.306;6.934;2022-07-22T03:35:24;98783.00;;;21.84;65.39
22964;BME280;11648;49.306;6.934;2022-07-22T03:37:51;98786.56;;;21.85;65.55
22964;BME280;11648;49.306;6.934;2022-07-22T03:40:18;98796.00;;;21.75;66.03
22964;BME280;11648;49.306;6.934;2022-07-22T03:42:44;98797.44;;;21.64;66.92
22964;BME280;11648;49.306;6.934;2022-07-22T03:45:13;98790.69;;;21.56;67.25
22964;BME280;11648;49.306;6.934;2022-07-22T03:47:41;98790.81;;;21.54;67.42
22964;BME280;11648;49.306;6.934;2022-07-22T03:50:08;98785.19;;;21.59;66.81
22964;BME280;11648;49.306;6.934;2022-07-22T03:52:35;98786.94;;;21.60;66.90
22964;BME280;11648;49.306;6.934;2022-07-22T03:55:05;98787.66;;;21.63;66.77
22964;BME280;11648;49.306;6.934;2022-07-22T03:57:32;98789.69;;;21.58;66.69
22964;BME280;11648;49.306;6.934;2022-07-22T04:00:19;98784.78;;;21.49;67.10
22964;BME280;11648;49.306;6.934;2022-07-22T04:02:46;98783.63;;;21.55;67.13
22964;BME280;11648;49.306;6.934;2022-07-22T04:05:23;98777.41;;;21.54;66.92
22964;BME280;11648;49.306;6.934;2022-07-22T04:07:49;98792.22;;;21.61;66.78
22964;BME280;11648;49.306;6.934;2022-07-22T04:10:16;98791.56;;;21.56;66.56
22964;BME280;11648;49.306;6.934;2022-07-22T04:12:43;98787.97;;;21.57;66.67
22964;BME280;11648;49.306;6.934;2022-07-22T04:15:19;98781.09;;;21.52;66.79
22964;BME280;11648;49.306;6.934;2022-07-22T04:17:45;98785.72;;;21.48;66.69
22964;BME280;11648;49.306;6.934;2022-07-22T04:20:12;98784.63;;;21.52;66.60
22964;BME280;11648;49.306;6.934;2022-07-22T04:22:59;98789.78;;;21.57;66.67
22964;BME280;11648;49.306;6.934;2022-07-22T04:25:27;98782.44;;;21.60;66.29
22964;BME280;11648;49.306;6.934;2022-07-22T04:27:53;98780.97;;;21.72;65.78
22964;BME280;11648;49.306;6.934;2022-07-22T04:30:21;98780.09;;;21.72;65.71
22964;BME280;11648;49.306;6.934;2022-07-22T04:32:50;98784.97;;;21.81;65.58
22964;BME280;11648;49.306;6.934;2022-07-22T04:35:16;98781.28;;;21.83;65.35
22964;BME280;11648;49.306;6.934;2022-07-22T04:37:53;98784.03;;;21.82;65.52
22964;BME280;11648;49.306;6.934;2022-07-22T04:40:21;98776.63;;;21.87;64.94
22964;BME280;11648;49.306;6.934;2022-07-22T04:42:48;98771.72;;;21.78;65.12
22964;BME280;11648;49.306;6.934;2022-07-22T04:45:15;98774.59;;;21.92;64.99
22964;BME280;11648;49.306;6.934;2022-07-22T04:47:41;98770.03;;;21.94;64.59
22964;BME280;11648;49.306;6.934;2022-07-22T04:50:08;98770.13;;;21.92;64.88
22964;BME280;11648;49.306;6.934;2022-07-22T04:52:37;98776.59;;;22.05;64.55
22964;BME280;11648;49.306;6.934;2022-07-22T04:55:04;98763.88;;;21.92;64.41
22964;BME280;11648;49.306;6.934;2022-07-22T04:57:32;98772.69;;;21.77;65.10
22964;BME280;11648;49.306;6.934;2022-07-22T05:00:00;98774.41;;;21.78;64.81
22964;BME280;11648;49.306;6.934;2022-07-22T05:02:29;98773.84;;;21.88;65.06
22964;BME280;11648;49.306;6.934;2022-07-22T05:04:56;98777.13;;;22.12;64.87
22964;BME280;11648;49.306;6.934;2022-07-22T05:07:26;98768.88;;;22.32;63.91
22964;BME280;11648;49.306;6.934;2022-07-22T05:09:53;98771.63;;;22.48;63.80
22964;BME280;11648;49.306;6.934;2022-07-22T05:12:19;98768.19;;;22.61;63.05
22964;BME280;11648;49.306;6.934;2022-07-22T05:14:46;98764.78;;;22.75;62.26
22964;BME280;11648;49.306;6.934;2022-07-22T05:17:13;98768.94;;;22.96;62.01
22964;BME280;11648;49.306;6.934;2022-07-22T05:20:06;98771.03;;;22.91;61.09
22964;BME280;11648;49.306;6.934;2022-07-22T05:22:34;98766.00;;;23.01;61.54
22964;BME280;11648;49.306;6.934;2022-07-22T05:25:07;98768.00;;;22.97;60.80
22964;BME280;11648;49.306;6.934;2022-07-22T05:27:34;98763.94;;;22.90;61.15
22964;BME280;11648;49.306;6.934;2022-07-22T05:30:01;98759.50;;;23.05;60.74
22964;BME280;11648;49.306;6.934;2022-07-22T05:32:29;98758.03;;;23.15;60.38
22964;BME280;11648;49.306;6.934;2022-07-22T05:34:58;98759.84;;;23.30;59.68
22964;BME280;11648;49.306;6.934;2022-07-22T05:37:26;98754.56;;;23.29;59.61
22964;BME280;11648;49.306;6.934;2022-07-22T05:39:52;98762.09;;;23.38;59.73
22964;BME280;11648;49.306;6.934;2022-07-22T05:42:19;98754.75;;;23.41;59.16
22964;BME280;11648;49.306;6.934;2022-07-22T05:44:46;98763.19;;;23.65;58.53
22964;BME280;11648;49.306;6.934;2022-07-22T05:47:13;98757.22;;;23.90;58.06
22964;BME280;11648;49.306;6.934;2022-07-22T05:49:40;98750.03;;;24.20;57.05
22964;BME280;11648;49.306;6.934;2022-07-22T05:52:11;98755.22;;;23.93;57.00
22964;BME280;11648;49.306;6.934;2022-07-22T05:54:38;98753.94;;;24.15;56.51
22964;BME280;11648;49.306;6.934;2022-07-22T05:57:06;98754.94;;;24.42;56.00
22964;BME280;11648;49.306;6.934;2022-07-22T05:59:37;98745.59;;;24.62;55.58
22964;BME280;11648;49.306;6.934;2022-07-22T06:02:04;98741.84;;;24.50;55.68
22964;BME280;11648;49.306;6.934;2022-07-22T06:04:41;98758.50;;;24.42;55.60
22964;BME280;11648;49.306;6.934;2022-07-22T06:07:08;98740.53;;;24.57;55.37
22964;BME280;11648;49.306;6.934;2022-07-22T06:09:35;98738.19;;;24.79;55.08
22964;BME280;11648;49.306;6.934;2022-07-22T06:12:02;98736.38;;;24.94;54.09
22964;BME280;11648;49.306;6.934;2022-07-22T06:14:30;98728.97;;;25.24;53.32
22964;BME280;11648;49.306;6.934;2022-07-22T06:16:57;98732.66;;;25.50;52.75
22964;BME280;11648;49.306;6.934;2022-07-22T06:19:23;98737.47;;;25.45;52.50
22964;BME280;11648;49.306;6.934;2022-07-22T06:21:50;98740.06;;;25.73;52.01
22964;BME280;11648;49.306;6.934;2022-07-22T06:24:17;98735.94;;;26.07;51.08
22964;BME280;11648;49.306;6.934;2022-07-22T06:26:44;98737.03;;;26.30;50.25
22964;BME280;11648;49.306;6.934;2022-07-22T06:29:12;98736.91;;;26.44;50.63
22964;BME280;11648;49.306;6.934;2022-07-22T06:31:38;98738.88;;;26.55;49.85
22964;BME280;11648;49.306;6.934;2022-07-22T06:34:05;98729.03;;;26.66;49.57
22964;BME280;11648;49.306;6.934;2022-07-22T06:36:48;98735.59;;;26.62;49.41
22964;BME280;11648;49.306;6.934;2022-07-22T06:39:15;98728.16;;;26.78;49.29
22964;BME280;11648;49.306;6.934;2022-07-22T06:42:01;98731.41;;;26.71;49.32
22964;BME280;11648;49.306;6.934;2022-07-22T06:45:03;98727.72;;;26.97;49.15
22964;BME280;11648;49.306;6.934;2022-07-22T06:47:55;98725.50;;;27.02;48.78
22964;BME280;11648;49.306;6.934;2022-07-22T06:50:23;98725.19;;;27.30;48.76
22964;BME280;11648;49.306;6.934;2022-07-22T06:52:53;98725.56;;;27.26;47.96
22964;BME280;11648;49.306;6.934;2022-07-22T06:55:20;98730.44;;;27.44;47.91
22964;BME280;11648;49.306;6.934;2022-07-22T06:57:57;98718.25;;;27.39;47.72
22964;BME280;11648;49.306;6.934;2022-07-22T07:00:24;98722.41;;;27.56;47.42
22964;BME280;11648;49.306;6.934;2022-07-22T07:03:16;98720.91;;;27.75;47.20
22964;BME280;11648;49.306;6.934;2022-07-22T07:06:03;98717.47;;;27.84;46.94
22964;BME280;11648;49.306;6.934;2022-07-22T07:08:49;98724.00;;;28.28;45.88
22964;BME280;11648;49.306;6.934;2022-07-22T07:11:16;98718.84;;;28.25;45.77
22964;BME280;11648;49.306;6.934;2022-07-22T07:13:44;98721.47;;;28.37;45.28
22964;BME280;11648;49.306;6.934;2022-07-22T07:16:10;98713.31;;;28.60;44.70
22964;BME280;11648;49.306;6.934;2022-07-22T07:18:37;98711.72;;;28.57;45.06
22964;BME280;11648;49.306;6.934;2022-07-22T07:21:04;98708.28;;;28.66;44.83
22964;BME280;11648;49.306;6.934;2022-07-22T07:23:34;98707.69;;;28.74;44.51
22964;BME280;11648;49.306;6.934;2022-07-22T07:26:01;98707.53;;;28.64;44.77
22964;BME280;11648;49.306;6.934;2022-07-22T07:28:28;98703.47;;;28.36;45.13
22964;BME280;11648;49.306;6.934;2022-07-22T07:31:01;98697.44;;;28.44;45.64
22964;BME280;11648;49.306;6.934;2022-07-22T07:33:28;98694.25;;;28.61;45.25
22964;BME280;11648;49.306;6.934;2022-07-22T07:35:56;98688.44;;;28.99;43.74
22964;BME280;11648;49.306;6.934;2022-07-22T07:38:38;98687.59;;;28.99;43.43
22964;BME280;11648;49.306;6.934;2022-07-22T07:41:10;98686.75;;;28.87;43.95
22964;BME280;11648;49.306;6.934;2022-07-22T07:43:38;98688.69;;;28.96;44.28
22964;BME280;11648;49.306;6.934;2022-07-22T07:46:05;98689.09;;;28.80;44.02
22964;BME280;11648;49.306;6.934;2022-07-22T07:48:32;98686.69;;;29.09;44.21
22964;BME280;11648;49.306;6.934;2022-07-22T07:50:59;98681.63;;;29.59;42.51
22964;BME280;11648;49.306;6.934;2022-07-22T07:53:25;98680.78;;;29.79;42.71
22964;BME280;11648;49.306;6.934;2022-07-22T07:55:53;98679.09;;;29.99;41.90
22964;BME280;11648;49.306;6.934;2022-07-22T07:58:21;98679.66;;;30.44;40.72
22964;BME280;11648;49.306;6.934;2022-07-22T08:00:48;98673.28;;;30.94;40.57
22964;BME280;11648;49.306;6.934;2022-07-22T08:03:15;98669.78;;;31.13;39.51
22964;BME280;11648;49.306;6.934;2022-07-22T08:05:42;98668.00;;;31.71;39.08
22964;BME280;11648;49.306;6.934;2022-07-22T08:08:14;98658.19;;;32.16;37.94
22964;BME280;11648;49.306;6.934;2022-07-22T08:10:43;98654.19;;;32.48;37.42
22964;BME280;11648;49.306;6.934;2022-07-22T08:13:52;98658.63;;;32.68;36.64
22964;BME280;11648;49.306;6.934;2022-07-22T08:16:45;98655.75;;;32.87;36.19
22964;BME280;11648;49.306;6.934;2022-07-22T08:19:12;98647.16;;;33.09;36.04
22964;BME280;11648;49.306;6.934;2022-07-22T08:21:41;98648.78;;;33.12;35.79
22964;BME280;11648;49.306;6.934;2022-07-22T08:24:29;98663.91;;;33.42;35.73
22964;BME280;11648;49.306;6.934;2022-07-22T08:26:59;98651.97;;;33.25;35.54
22964;BME280;11648;49.306;6.934;2022-07-22T08:29:25;98653.09;;;33.67;35.12
22964;BME280;11648;49.306;6.934;2022-07-22T08:31:52;98652.31;;;33.57;35.21
22964;BME280;11648;49.306;6.934;2022-07-22T08:34:20;98645.91;;;33.84;34.61
22964;BME280;11648;49.306;6.934;2022-07-22T08:36:46;98638.47;;;34.38;34.10
22964;BME280;11648;49.306;6.934;2022-07-22T08:39:16;98636.34;;;34.91;33.41
22964;BME280;11648;49.306;6.934;2022-07-22T08:41:49;98643.63;;;35.16;32.47
22964;BME280;11648;49.306;6.934;2022-07-22T08:44:19;98641.94;;;35.40;32.48
22964;BME280;11648;49.306;6.934;2022-07-22T08:46:46;98643.22;;;35.11;32.42
22964;BME280;11648;49.306;6.934;2022-07-22T08:49:19;98639.00;;;35.25;32.62
22964;BME280;11648;49.306;6.934;2022-07-22T08:52:17;98630.38;;;35.70;31.44
22964;BME280;11648;49.306;6.934;2022-07-22T08:54:48;98632.75;;;36.05;31.17
22964;BME280;11648;49.306;6.934;2022-07-22T08:57:17;98633.78;;;35.64;31.51
22964;BME280;11648;49.306;6.934;2022-07-22T08:59:50;98642.84;;;36.05;30.38
22964;BME280;11648;49.306;6.934;2022-07-22T09:02:18;98628.81;;;36.79;30.28
22964;BME280;11648;49.306;6.934;2022-07-22T09:05:03;98622.78;;;37.23;29.19
22964;BME280;11648;49.306;6.934;2022-07-22T09:07:51;98617.78;;;37.57;28.75
22964;BME280;11648;49.306;6.934;2022-07-22T09:10:33;98619.34;;;37.51;28.21
22964;BME280;11648;49.306;6.934;2022-07-22T09:13:10;98621.00;;;37.61;28.29
22964;BME280;11648;49.306;6.934;2022-07-22T09:15:53;98617.19;;;37.84;28.77
22964;BME280;11648;49.306;6.934;2022-07-22T09:18:53;98602.41;;;38.23;27.51
22964;BME280;11648;49.306;6.934;2022-07-22T09:21:47;98594.94;;;38.61;26.97
22964;BME280;11648;49.306;6.934;2022-07-22T09:26:57;98600.06;;;38.93;26.88
22964;BME280;11648;49.306;6.934;2022-07-22T09:29:35;98586.72;;;39.11;26.11
22964;BME280;11648;49.306;6.934;2022-07-22T09:32:39;98574.13;;;40.08;25.71
22964;BME280;11648;49.306;6.934;2022-07-22T09:35:26;98564.91;;;40.57;24.51
22964;BME280;11648;49.306;6.934;2022-07-22T09:38:07;98562.59;;;40.60;24.83
22964;BME280;11648;49.306;6.934;2022-07-22T09:40:36;98557.94;;;41.15;23.61
22964;BME280;11648;49.306;6.934;2022-07-22T09:43:06;98553.94;;;41.24;24.09
22964;BME280;11648;49.306;6.934;2022-07-22T09:45:34;98554.88;;;42.03;23.00
22964;BME280;11648;49.306;6.934;2022-07-22T09:48:01;98553.59;;;41.86;22.88
22964;BME280;11648;49.306;6.934;2022-07-22T09:50:48;98547.72;;;42.60;21.90
22964;BME280;11648;49.306;6.934;2022-07-22T09:53:35;98539.44;;;42.47;22.20
22964;BME280;11648;49.306;6.934;2022-07-22T09:56:08;98540.97;;;43.07;22.04
22964;BME280;11648;49.306;6.934;2022-07-22T09:58:37;98531.41;;;43.90;21.15
22964;BME280;11648;49.306;6.934;2022-07-22T10:01:12;98525.00;;;45.05;20.12
22964;BME280;11648;49.306;6.934;2022-07-22T10:03:40;98524.63;;;45.02;19.43
22964;BME280;11648;49.306;6.934;2022-07-22T10:06:09;98524.34;;;44.73;19.40
22964;BME280;11648;49.306;6.934;2022-07-22T10:08:38;98525.38;;;45.09;19.75
22964;BME280;11648;49.306;6.934;2022-07-22T10:11:06;98538.84;;;44.94;19.52
22964;BME280;11648;49.306;6.934;2022-07-22T10:13:34;98549.78;;;43.60;20.41
22964;BME280;11648;49.306;6.934;2022-07-22T10:16:04;98550.13;;;43.70;20.21
22964;BME280;11648;49.306;6.934;2022-07-22T10:18:32;98534.84;;;44.71;19.61
22964;BME280;11648;49.306;6.934;2022-07-22T10:21:06;98529.28;;;46.14;18.64
22964;BME280;11648;49.306;6.934;2022-07-22T10:23:34;98527.97;;;46.91;17.64
22964;BME280;11648;49.306;6.934;2022-07-22T10:26:02;98533.84;;;45.97;18.13
22964;BME280;11648;49.306;6.934;2022-07-22T10:28:35;98529.41;;;46.31;17.61
22964;BME280;11648;49.306;6.934;2022-07-22T10:31:21;98535.97;;;47.44;17.00
22964;BME280;11648;49.306;6.934;2022-07-22T10:33:54;98526.91;;;47.21;17.02
22964;BME280;11648;49.306;6.934;2022-07-22T10:36:31;98519.88;;;49.43;14.85
22964;BME280;11648;49.306;6.934;2022-07-22T10:39:16;98514.53;;;49.15;15.17
22964;BME280;11648;49.306;6.934;2022-07-22T10:41:44;98510.84;;;49.36;15.60
22964;BME280;11648;49.306;6.934;2022-07-22T10:44:47;98501.22;;;49.81;15.00
22964;BME280;11648;49.306;6.934;2022-07-22T10:47:55;98510.91;;;47.94;16.51
22964;BME280;11648;49.306;6.934;2022-07-22T10:55:33;98497.63;;;49.59;15.15
22964;BME280;11648;49.306;6.934;2022-07-22T10:58:25;98499.94;;;50.35;14.54
22964;BME280;11648;49.306;6.934;2022-07-22T11:00:47;98499.78;;;51.65;13.91
22964;BME280;11648;49.306;6.934;2022-07-22T11:03:25;98497.47;;;52.43;13.18
22964;BME280;11648;49.306;6.934;2022-07-22T11:05:52;98494.72;;;52.38;12.92
22964;BME280;11648;49.306;6.934;2022-07-22T11:08:18;98499.72;;;51.04;13.72
22964;BME280;11648;49.306;6.934;2022-07-22T11:10:49;98481.63;;;50.75;13.57
22964;BME280;11648;49.306;6.934;2022-07-22T11:13:35;98493.19;;;50.94;13.56
22964;BME280;11648;49.306;6.934;2022-07-22T11:16:22;98486.16;;;50.34;13.70
22964;BME280;11648;49.306;6.934;2022-07-22T11:18:55;98485.59;;;50.89;13.45
22964;BME280;11648;49.306;6.934;2022-07-22T11:21:25;98488.59;;;51.80;13.46
22964;BME280;11648;49.306;6.934;2022-07-22T11:23:58;98488.28;;;49.43;14.26
22964;BME280;11648;49.306;6.934;2022-07-22T11:29:06;98496.06;;;46.99;16.11
22964;BME280;11648;49.306;6.934;2022-07-22T11:31:34;98489.72;;;46.63;16.94
22964;BME280;11648;49.306;6.934;2022-07-22T11:34:06;98485.97;;;46.70;16.81
22964;BME280;11648;49.306;6.934;2022-07-22T11:36:35;98486.16;;;47.20;16.64
22964;BME280;11648;49.306;6.934;2022-07-22T11:39:02;98469.28;;;47.93;15.97
22964;BME280;11648;49.306;6.934;2022-07-22T11:41:30;98463.25;;;48.01;15.57
22964;BME280;11648;49.306;6.934;2022-07-22T11:43:57;98461.00;;;48.80;15.13
22964;BME280;11648;49.306;6.934;2022-07-22T11:46:26;98455.75;;;49.10;15.42
22964;BME280;11648;49.306;6.934;2022-07-22T11:48:53;98449.41;;;49.20;15.30
22964;BME280;11648;49.306;6.934;2022-07-22T11:51:20;98445.31;;;48.79;15.38
22964;BME280;11648;49.306;6.934;2022-07-22T11:53:47;98453.81;;;47.85;15.95
22964;BME280;11648;49.306;6.934;2022-07-22T11:56:14;98455.59;;;46.56;16.88
22964;BME280;11648;49.306;6.934;2022-07-22T11:58:46;98459.63;;;45.03;18.27
22964;BME280;11648;49.306;6.934;2022-07-22T12:01:15;98455.72;;;43.58;18.74
22964;BME280;11648;49.306;6.934;2022-07-22T12:03:48;98454.91;;;44.37;18.84
22964;BME280;11648;49.306;6.934;2022-07-22T12:06:17;98447.88;;;46.35;16.60
22964;BME280;11648;49.306;6.934;2022-07-22T12:08:56;98450.78;;;46.80;16.24
22964;BME280;11648;49.306;6.934;2022-07-22T12:11:28;98448.44;;;46.89;16.02
22964;BME280;11648;49.306;6.934;2022-07-22T12:13:55;98438.16;;;47.68;15.31
22964;BME280;11648;49.306;6.934;2022-07-22T12:16:29;98434.00;;;47.53;16.03
22964;BME280;11648;49.306;6.934;2022-07-22T12:18:59;98431.34;;;45.94;16.89
22964;BME280;11648;49.306;6.934;2022-07-22T12:21:27;98442.81;;;43.70;18.82
22964;BME280;11648;49.306;6.934;2022-07-22T12:24:14;98438.47;;;42.62;20.37
22964;BME280;11648;49.306;6.934;2022-07-22T12:26:47;98437.44;;;41.53;20.95
22964;BME280;11648;49.306;6.934;2022-07-22T12:31:53;98437.09;;;39.53;22.84
22964;BME280;11648;49.306;6.934;2022-07-22T12:34:36;98434.94;;;39.48;23.16
22964;BME280;11648;49.306;6.934;2022-07-22T12:37:59;98430.56;;;39.88;23.25
22964;BME280;11648;49.306;6.934;2022-07-22T12:40:07;98428.09;;;40.00;23.66
22964;BME280;11648;49.306;6.934;2022-07-22T12:42:40;98429.34;;;39.97;23.01
22964;BME280;11648;49.306;6.934;2022-07-22T12:45:14;98431.84;;;39.92;23.34
22964;BME280;11648;49.306;6.934;2022-07-22T12:47:55;98420.97;;;39.50;23.69
22964;BME280;11648;49.306;6.934;2022-07-22T12:50:34;98435.63;;;39.57;23.77
22964;BME280;11648;49.306;6.934;2022-07-22T12:58:12;98418.38;;;39.48;23.41
22964;BME280;11648;49.306;6.934;2022-07-22T13:00:43;98414.81;;;39.48;23.33
22964;BME280;11648;49.306;6.934;2022-07-22T13:03:10;98419.66;;;38.97;23.74
22964;BME280;11648;49.306;6.934;2022-07-22T13:05:37;98422.13;;;38.92;24.04
22964;BME280;11648;49.306;6.934;2022-07-22T13:08:04;98423.44;;;38.39;25.03
22964;BME280;11648;49.306;6.934;2022-07-22T13:10:35;98415.94;;;38.33;25.32
22964;BME280;11648;49.306;6.934;2022-07-22T13:13:02;98424.28;;;38.39;24.60
22964;BME280;11648;49.306;6.934;2022-07-22T13:15:28;98422.97;;;38.21;24.70
22964;BME280;11648;49.306;6.934;2022-07-22T13:17:55;98433.00;;;38.43;24.99
22964;BME280;11648;49.306;6.934;2022-07-22T13:20:22;98432.13;;;38.78;24.19
22964;BME280;11648;49.306;6.934;2022-07-22T13:22:49;98421.91;;;39.15;24.14
22964;BME280;11648;49.306;6.934;2022-07-22T13:25:17;98422.06;;;39.28;23.75
22964;BME280;11648;49.306;6.934;2022-07-22T13:27:43;98414.47;;;39.30;23.71
22964;BME280;11648;49.306;6.934;2022-07-22T13:30:11;98417.31;;;39.43;23.23
22964;BME280;11648;49.306;6.934;2022-07-22T13:32:39;98415.50;;;39.29;23.55
22964;BME280;11648;49.306;6.934;2022-07-22T13:35:15;98412.97;;;39.34;23.27
22964;BME280;11648;49.306;6.934;2022-07-22T13:37:42;98411.72;;;39.30;23.16